Time;durP1;ratioP1;P1;durP2;ratioP2;P2;SDS_P1;SDS_P2;PMS_P1;PMS_P2;Temp;Humidity;BMP_temperature;BMP_pressure;BME280_temperature;BME280_humidity;BME280_pressure;Samples;Min_cycle;Max_cycle;Signal;HPM_P1;HPM_P2
2023/03/06 00:00:53;;;;;;;;;39.25;34.00;;;;;9.27;54.52;100694.63;4923643;28;45351;-70
2023/03/06 00:03:19;;;;;;;;;39.75;33.00;;;;;9.08;54.40;100672.97;4923588;28;45349;-70
2023/03/06 00:05:44;;;;;;;;;41.00;34.75;;;;;9.03;54.51;100666.88;4923181;28;45438;-70
2023/03/06 00:08:10;;;;;;;;;38.75;34.25;;;;;9.16;55.02;100686.94;4923342;28;45238;-70
2023/03/06 00:10:36;;;;;;;;;39.00;36.00;;;;;8.93;54.98;100644.97;4923317;28;45481;-70
2023/03/06 00:13:05;;;;;;;;;44.25;36.25;;;;;8.81;55.14;100630.19;4923469;28;45428;-70
2023/03/06 00:15:30;;;;;;;;;34.00;32.25;;;;;8.96;54.33;100663.53;4905872;28;48633;-70
2023/03/06 00:17:59;;;;;;;;;42.25;37.75;;;;;9.03;54.06;100680.19;4906073;28;45387;-70
2023/03/06 00:20:25;;;;;;;;;35.50;29.50;;;;;8.93;54.48;100662.72;4918922;28;45411;-70
2023/03/06 00:22:51;;;;;;;;;32.00;28.00;;;;;8.71;53.99;100642.00;4904282;29;45371;-70
2023/03/06 00:25:19;;;;;;;;;28.00;24.50;;;;;9.05;54.26;100694.34;4886823;29;48430;-70
2023/03/06 00:27:45;;;;;;;;;32.25;28.00;;;;;8.72;53.99;100638.44;4886570;29;45611;-71
2023/03/06 00:30:13;;;;;;;;;30.00;26.75;;;;;8.81;54.02;100646.16;4904114;28;45388;-71
2023/03/06 00:32:39;;;;;;;;;31.00;29.25;;;;;8.79;54.10;100640.03;4887063;29;45785;-70
2023/03/06 00:35:05;;;;;;;;;31.00;29.00;;;;;8.74;53.97;100625.06;4886789;29;47144;-70
2023/03/06 00:37:30;;;;;;;;;36.75;27.50;;;;;8.85;53.89;100646.94;4903998;29;45321;-70
2023/03/06 00:39:56;;;;;;;;;28.00;26.75;;;;;8.66;54.11;100611.97;4902653;29;45506;-70
2023/03/06 00:42:21;;;;;;;;;32.50;27.50;;;;;8.77;54.34;100633.88;4903572;29;45336;-70
2023/03/06 00:44:46;;;;;;;;;31.50;27.75;;;;;8.75;54.14;100633.00;4917055;28;46441;-70
2023/03/06 00:47:12;;;;;;;;;37.75;33.00;;;;;8.88;54.19;100653.06;4922336;28;45509;-70
2023/03/06 00:49:38;;;;;;;;;32.00;31.25;;;;;8.67;54.17;100617.28;4905359;28;45468;-70
2023/03/06 00:52:04;;;;;;;;;30.25;28.75;;;;;8.66;54.46;100619.97;4922858;28;45569;-70
2023/03/06 00:54:29;;;;;;;;;36.25;30.50;;;;;8.72;54.38;100630.47;4922704;28;45465;-70
2023/03/06 00:56:54;;;;;;;;;32.50;30.00;;;;;8.76;54.25;100636.56;4904910;28;45434;-71
2023/03/06 00:59:20;;;;;;;;;35.25;30.00;;;;;8.56;54.84;100607.81;4922667;28;45546;-70
2023/03/06 01:01:45;;;;;;;;;31.75;29.25;;;;;8.69;54.56;100635.84;4922698;28;45445;-70
2023/03/06 01:04:11;;;;;;;;;34.75;31.75;;;;;8.63;54.03;100628.03;4922410;28;45675;-70
2023/03/06 01:06:37;;;;;;;;;32.50;29.75;;;;;8.61;54.41;100638.69;4905350;28;45427;-70
2023/03/06 01:09:03;;;;;;;;;32.25;27.50;;;;;8.56;53.96;100627.31;4905325;28;45376;-71
2023/03/06 01:11:29;;;;;;;;;36.00;29.00;;;;;8.79;53.96;100674.63;4922321;28;45569;-70
2023/03/06 01:13:54;;;;;;;;;32.25;27.75;;;;;8.55;54.13;100632.66;4905128;28;47425;-70
2023/03/06 01:16:20;;;;;;;;;35.75;29.50;;;;;8.47;54.02;100625.75;4905272;28;45321;-70
2023/03/06 01:18:46;;;;;;;;;31.75;25.75;;;;;8.27;54.30;100604.06;4905185;28;45486;-70
2023/03/06 01:21:12;;;;;;;;;34.75;30.50;;;;;8.38;54.12;100617.09;4911961;28;46195;-70
2023/03/06 01:23:38;;;;;;;;;37.25;32.25;;;;;8.40;54.21;100623.25;4902981;28;45463;-70
2023/03/06 01:26:04;;;;;;;;;37.50;35.50;;;;;8.61;54.34;100662.66;4902924;29;45956;-70
2023/03/06 01:28:30;;;;;;;;;35.25;32.75;;;;;8.32;54.61;100619.00;4903112;29;45486;-70
2023/03/06 01:30:56;;;;;;;;;36.75;31.00;;;;;8.53;54.60;100659.31;4886108;29;45540;-71
2023/03/06 01:33:21;;;;;;;;;34.00;28.75;;;;;8.25;54.71;100608.56;4914058;28;45642;-71
2023/03/06 01:35:47;;;;;;;;;29.00;25.25;;;;;8.08;54.56;100585.91;4900735;28;45454;-70
2023/03/06 01:38:13;;;;;;;;;39.75;32.50;;;;;8.23;55.10;100610.38;4886030;29;45565;-71
2023/03/06 01:40:38;;;;;;;;;41.25;35.00;;;;;8.24;55.45;100602.38;4902983;29;45356;-70
2023/03/06 01:43:22;;;;;;;;;38.75;36.00;;;;;8.47;55.07;100649.72;4903122;28;46688;-70
2023/03/06 01:45:48;;;;;;;;;36.75;31.25;;;;;8.43;55.39;100639.19;4921959;28;45884;-70
2023/03/06 01:48:14;;;;;;;;;36.25;32.50;;;;;8.16;55.33;100605.22;4922124;28;45307;-70
2023/03/06 01:50:39;;;;;;;;;31.00;23.50;;;;;8.20;54.97;100611.31;4921850;28;45531;-70
2023/03/06 01:53:06;;;;;;;;;35.25;30.25;;;;;8.23;54.98;100624.53;4921847;28;46528;-70
2023/03/06 01:55:34;;;;;;;;;29.50;27.75;;;;;7.96;54.76;100573.78;4921769;28;45805;-70
2023/03/06 01:58:06;;;;;;;;;29.50;24.75;;;;;8.15;54.72;100603.47;4921601;28;45414;-70
2023/03/06 02:00:32;;;;;;;;;28.25;25.25;;;;;8.10;54.61;100600.06;4904578;28;46079;-70
2023/03/06 02:03:13;;;;;;;;;24.75;22.00;;;;;8.03;54.43;100586.94;4921768;28;46060;-70
2023/03/06 02:05:40;;;;;;;;;30.00;23.25;;;;;7.95;54.15;100563.19;4921679;28;45804;-70
2023/03/06 02:08:08;;;;;;;;;28.75;25.00;;;;;8.37;53.87;100637.53;4921670;28;45482;-70
2023/03/06 02:10:33;;;;;;;;;28.50;24.50;;;;;8.12;53.94;100608.88;4921358;28;45523;-71
2023/03/06 02:12:59;;;;;;;;;34.00;25.75;;;;;8.18;53.84;100612.28;4921616;28;46400;-70
2023/03/06 02:15:27;;;;;;;;;24.00;23.25;;;;;7.90;53.97;100570.41;4904325;28;45818;-70
2023/03/06 02:17:53;;;;;;;;;28.75;23.25;;;;;8.07;53.94;100592.16;4921734;28;45324;-70
2023/03/06 02:20:23;;;;;;;;;20.50;20.50;;;;;8.30;53.67;100626.16;4900629;29;45858;-70
2023/03/06 02:23:13;;;;;;;;;29.00;25.00;;;;;8.13;53.84;100591.13;4902490;29;46525;-70
2023/03/06 02:25:41;;;;;;;;;31.25;28.75;;;;;8.07;54.06;100586.84;4892726;29;45709;-70
2023/03/06 02:28:09;;;;;;;;;33.75;29.50;;;;;8.05;53.72;100569.16;4883294;29;45624;-70
2023/03/06 02:30:35;;;;;;;;;30.75;27.50;;;;;8.00;53.84;100569.28;4883650;29;45470;-70
2023/03/06 02:33:01;;;;;;;;;32.75;28.00;;;;;8.05;54.19;100566.50;4888777;28;45566;-70
2023/03/06 02:35:29;;;;;;;;;31.25;26.25;;;;;8.13;53.98;100578.69;4901661;28;45777;-70
2023/03/06 02:37:57;;;;;;;;;24.00;17.25;;;;;8.07;53.98;100568.22;4866578;29;45338;-70
2023/03/06 02:40:24;;;;;;;;;30.00;28.50;;;;;7.95;54.18;100553.47;4883392;29;45443;-70
2023/03/06 02:42:56;;;;;;;;;32.50;30.25;;;;;7.97;54.03;100561.41;4866071;29;48196;-70
2023/03/06 02:45:36;;;;;;;;;30.75;27.75;;;;;8.01;53.97;100557.75;4884674;29;45788;-70
2023/03/06 02:48:02;;;;;;;;;25.00;21.00;;;;;7.95;53.86;100541.94;4902158;29;45389;-70
2023/03/06 02:50:28;;;;;;;;;29.75;28.75;;;;;7.96;54.23;100547.22;4902283;29;45290;-70
2023/03/06 02:52:53;;;;;;;;;37.00;30.50;;;;;8.19;54.25;100569.72;4902017;29;45347;-70
2023/03/06 02:55:18;;;;;;;;;30.50;30.00;;;;;8.05;54.07;100551.44;4901959;29;45314;-70
2023/03/06 02:57:44;;;;;;;;;22.00;20.50;;;;;8.06;53.95;100549.66;4901961;29;45492;-70
2023/03/06 03:00:11;;;;;;;;;31.50;23.75;;;;;8.20;53.54;100567.91;4902119;29;45244;-70
2023/03/06 03:02:36;;;;;;;;;28.00;22.75;;;;;8.02;53.65;100543.56;4901970;29;46472;-70
2023/03/06 03:05:02;;;;;;;;;37.50;29.25;;;;;7.79;53.28;100505.13;4901997;29;45393;-70
2023/03/06 03:07:27;;;;;;;;;30.75;28.75;;;;;8.02;53.75;100543.56;4901907;29;45468;-70
2023/03/06 03:09:52;;;;;;;;;34.25;32.50;;;;;7.83;53.91;100516.53;4904200;29;45431;-71
2023/03/06 03:12:18;;;;;;;;;25.50;24.25;;;;;8.01;53.75;100539.13;4904862;29;46518;-70
2023/03/06 03:14:43;;;;;;;;;31.50;28.50;;;;;8.00;53.65;100541.81;4887808;29;45404;-70
2023/03/06 03:17:09;;;;;;;;;29.75;24.00;;;;;7.81;52.99;100497.09;4888097;29;45456;-70
2023/03/06 03:19:34;;;;;;;;;21.50;21.00;;;;;8.01;53.73;100530.28;4905208;29;45515;-71
2023/03/06 03:22:00;;;;;;;;;28.25;23.25;;;;;8.04;53.66;100530.22;4888085;29;45432;-70
2023/03/06 03:24:25;;;;;;;;;27.00;24.00;;;;;8.09;53.43;100539.81;4886300;29;45582;-70
2023/03/06 03:26:51;;;;;;;;;27.25;20.00;;;;;8.16;53.45;100546.72;4887384;29;45427;-70
2023/03/06 03:29:17;;;;;;;;;25.00;23.50;;;;;7.93;53.56;100511.88;4887761;29;45459;-70
2023/03/06 03:31:42;;;;;;;;;26.25;24.00;;;;;8.02;53.35;100521.38;4904677;28;45360;-71
2023/03/06 03:34:08;;;;;;;;;26.50;20.75;;;;;8.21;53.21;100559.03;4916520;28;45359;-70
2023/03/06 03:36:34;;;;;;;;;29.00;26.50;;;;;8.23;53.23;100566.03;4888714;29;45380;-70
2023/03/06 03:38:59;;;;;;;;;34.50;28.00;;;;;8.02;53.18;100529.38;4904829;28;45296;-70
2023/03/06 03:41:24;;;;;;;;;33.50;30.25;;;;;8.15;53.32;100557.38;4887313;29;46212;-70
2023/03/06 03:43:50;;;;;;;;;34.75;27.50;;;;;7.85;53.45;100514.75;4911230;28;45749;-70
2023/03/06 03:46:15;;;;;;;;;37.50;30.00;;;;;7.70;53.80;100484.09;4923785;28;45540;-70
2023/03/06 03:48:41;;;;;;;;;31.75;27.00;;;;;8.16;53.69;100552.03;4923714;28;45438;-70
2023/03/06 03:51:09;;;;;;;;;38.00;31.25;;;;;7.91;53.54;100505.72;4923528;28;45546;-70
2023/03/06 03:53:35;;;;;;;;;27.75;24.00;;;;;7.79;53.57;100488.31;4923867;28;45585;-70
2023/03/06 03:56:00;;;;;;;;;36.75;28.25;;;;;7.71;53.91;100479.66;4923478;28;45318;-70
2023/03/06 03:58:26;;;;;;;;;41.25;34.50;;;;;7.90;54.05;100506.63;4923430;28;45372;-70
2023/03/06 04:00:51;;;;;;;;;17.25;13.50;;;;;7.80;54.06;100490.03;4906217;28;47226;-70
2023/03/06 04:03:17;;;;;;;;;36.25;31.75;;;;;7.81;54.62;100496.25;4906428;28;45425;-71
2023/03/06 04:05:42;;;;;;;;;39.25;31.00;;;;;7.91;54.38;100505.72;4906225;28;45561;-70
2023/03/06 04:08:08;;;;;;;;;40.25;31.25;;;;;7.87;54.80;100514.66;4906081;28;45379;-70
2023/03/06 04:10:33;;;;;;;;;33.00;27.25;;;;;7.77;54.70;100490.13;4923056;28;46332;-70
2023/03/06 04:12:59;;;;;;;;;32.50;29.75;;;;;8.01;54.76;100532.94;4923431;28;45430;-70
2023/03/06 04:15:25;;;;;;;;;25.50;22.00;;;;;7.81;54.69;100491.78;4923354;28;45483;-70
2023/03/06 04:17:50;;;;;;;;;35.50;33.75;;;;;7.83;54.71;100500.59;4923315;28;45366;-70
2023/03/06 04:20:16;;;;;;;;;30.75;29.25;;;;;8.11;54.66;100543.31;4902542;29;47321;-70
2023/03/06 04:22:41;;;;;;;;;39.00;30.50;;;;;7.80;54.74;100490.03;4904344;29;45291;-70
2023/03/06 04:25:07;;;;;;;;;31.25;29.25;;;;;7.82;54.77;100482.91;4904092;28;45550;-70
2023/03/06 04:27:32;;;;;;;;;30.00;27.50;;;;;7.82;55.01;100477.59;4871297;29;45934;-70
2023/03/06 04:29:58;;;;;;;;;36.75;33.25;;;;;7.83;55.19;100479.34;4886703;29;46834;-70
2023/03/06 04:32:23;;;;;;;;;35.25;31.00;;;;;7.72;54.68;100455.69;4904084;29;45413;-70
2023/03/06 04:34:48;;;;;;;;;39.50;33.75;;;;;7.96;54.87;100501.16;4929938;28;45373;-70
2023/03/06 04:37:22;;;;;;;;;34.00;32.25;;;;;8.05;55.05;100519.56;4886423;29;45587;-70
2023/03/06 04:39:48;;;;;;;;;36.00;32.75;;;;;7.78;55.06;100474.16;4903763;29;45473;-71
2023/03/06 04:42:14;;;;;;;;;35.50;30.75;;;;;8.00;54.73;100515.25;4903551;29;45463;-70
2023/03/06 04:44:39;;;;;;;;;35.25;28.00;;;;;8.05;55.22;100523.97;4916743;28;45443;-70
2023/03/06 04:47:05;;;;;;;;;37.75;34.00;;;;;7.80;55.01;100484.72;4922862;28;45466;-70
2023/03/06 04:49:30;;;;;;;;;29.50;29.25;;;;;7.97;54.67;100510.91;4922597;28;45585;-70
2023/03/06 04:51:56;;;;;;;;;33.25;30.25;;;;;8.12;55.17;100522.94;4922803;28;45398;-70
2023/03/06 04:54:22;;;;;;;;;36.00;26.00;;;;;7.85;54.94;100477.53;4905621;28;45455;-70
2023/03/06 04:56:47;;;;;;;;;34.75;29.50;;;;;7.65;55.20;100442.59;4922522;28;45405;-70
2023/03/06 04:59:12;;;;;;;;;34.25;27.75;;;;;7.88;54.85;100482.75;4922522;28;45479;-70
2023/03/06 05:01:38;;;;;;;;;28.00;25.00;;;;;7.99;54.74;100498.44;4922683;28;45343;-70
2023/03/06 05:04:03;;;;;;;;;29.50;25.25;;;;;7.96;54.77;100479.91;4922632;28;45275;-70
2023/03/06 05:06:29;;;;;;;;;34.00;30.25;;;;;7.68;54.65;100445.19;4922651;28;45372;-70
2023/03/06 05:08:54;;;;;;;;;28.00;25.50;;;;;8.05;54.70;100503.59;4922137;28;45377;-71
2023/03/06 05:11:19;;;;;;;;;31.75;27.75;;;;;7.85;54.90;100481.94;4905088;28;45340;-70
2023/03/06 05:13:45;;;;;;;;;30.00;28.25;;;;;8.10;54.81;100517.66;4922493;28;45400;-70
2023/03/06 05:16:10;;;;;;;;;29.25;28.25;;;;;7.85;54.99;100476.63;4922563;28;45323;-70
2023/03/06 05:18:36;;;;;;;;;41.00;32.25;;;;;7.85;54.98;100485.50;4922301;28;45488;-70
2023/03/06 05:21:03;;;;;;;;;33.75;29.50;;;;;7.73;54.83;100462.75;4896096;29;46082;-70
2023/03/06 05:23:30;;;;;;;;;34.00;28.00;;;;;7.71;54.79;100466.38;4903241;28;45505;-70
2023/03/06 05:25:56;;;;;;;;;32.00;29.25;;;;;7.95;54.67;100516.25;4903053;29;45590;-70
2023/03/06 05:28:22;;;;;;;;;35.50;29.25;;;;;7.69;55.06;100461.09;4902744;29;45443;-70
2023/03/06 05:30:48;;;;;;;;;33.25;31.25;;;;;7.52;55.05;100431.44;4886141;29;45629;-70
2023/03/06 05:33:13;;;;;;;;;35.75;30.00;;;;;7.92;55.14;100497.72;4902846;29;45452;-70
2023/03/06 05:35:38;;;;;;;;;36.75;33.50;;;;;7.91;55.17;100495.09;4903298;29;45432;-70
2023/03/06 05:38:04;;;;;;;;;34.75;31.25;;;;;7.72;55.17;100466.34;4902964;29;45658;-70
2023/03/06 05:40:29;;;;;;;;;32.75;30.75;;;;;7.58;55.42;100437.47;4902922;29;45533;-70
2023/03/06 05:42:54;;;;;;;;;37.25;33.50;;;;;7.91;55.32;100500.41;4902979;29;45907;-70
2023/03/06 05:45:20;;;;;;;;;35.25;29.00;;;;;7.84;55.50;100478.44;4902957;29;45346;-71
2023/03/06 05:47:45;;;;;;;;;34.00;25.00;;;;;7.80;55.34;100471.44;4902743;29;45496;-70
2023/03/06 05:50:12;;;;;;;;;33.50;28.75;;;;;7.83;55.26;100462.53;4902956;29;45466;-71
2023/03/06 05:52:38;;;;;;;;;34.75;33.00;;;;;7.88;55.04;100488.06;4885896;29;45641;-71
2023/03/06 05:55:04;;;;;;;;;33.25;28.50;;;;;7.87;55.67;100475.69;4902969;29;45471;-71
2023/03/06 05:57:30;;;;;;;;;24.50;20.25;;;;;7.75;55.13;100449.41;4885098;29;47791;-70
2023/03/06 05:59:56;;;;;;;;;32.25;29.75;;;;;7.85;55.29;100469.56;4902766;29;45399;-70
2023/03/06 06:02:21;;;;;;;;;37.25;32.75;;;;;7.87;55.19;100469.50;4885082;29;45453;-70
2023/03/06 06:04:47;;;;;;;;;35.75;30.50;;;;;7.73;54.74;100440.63;4885729;29;45401;-70
2023/03/06 06:07:14;;;;;;;;;27.00;26.00;;;;;7.86;54.79;100451.81;4902508;29;46386;-70
2023/03/06 06:09:42;;;;;;;;;36.25;28.25;;;;;7.98;54.70;100475.41;4902617;29;45337;-70
2023/03/06 06:12:08;;;;;;;;;28.75;26.00;;;;;8.09;54.92;100481.31;4885310;29;45495;-70
2023/03/06 06:14:33;;;;;;;;;28.25;24.50;;;;;7.85;54.47;100427.03;4902548;29;45588;-71
2023/03/06 06:16:59;;;;;;;;;32.75;26.00;;;;;8.01;54.66;100442.56;4885171;29;46200;-70
2023/03/06 06:19:28;;;;;;;;;31.25;28.25;;;;;7.78;54.74;100413.03;4902546;29;45439;-70
2023/03/06 06:21:53;;;;;;;;;28.50;21.25;;;;;7.87;54.83;100445.56;4886595;29;45261;-70
2023/03/06 06:24:22;;;;;;;;;29.75;25.75;;;;;7.92;54.42;100435.72;4866593;29;46125;-70
2023/03/06 06:26:52;;;;;;;;;12.00;12.00;;;;;7.90;54.48;100432.22;4866005;29;48325;-70
2023/03/06 06:29:18;;;;;;;;;26.75;23.00;;;;;7.83;54.51;100427.97;4883403;29;45714;-70
2023/03/06 06:31:44;;;;;;;;;25.25;22.00;;;;;7.81;54.42;100438.66;4883547;29;45260;-70
2023/03/06 06:34:10;;;;;;;;;31.50;28.50;;;;;8.06;54.36;100470.78;4895172;29;45616;-70
2023/03/06 06:36:35;;;;;;;;;29.75;27.75;;;;;7.77;54.32;100432.53;4866293;29;47843;-70
2023/03/06 06:39:01;;;;;;;;;36.00;28.75;;;;;7.64;54.33;100415.16;4883258;29;45517;-70
2023/03/06 06:41:26;;;;;;;;;26.00;22.50;;;;;7.95;54.36;100467.50;4883160;29;45249;-70
2023/03/06 06:43:52;;;;;;;;;30.00;28.25;;;;;8.04;54.49;100483.25;4890946;29;45329;-70
2023/03/06 06:46:19;;;;;;;;;34.00;28.00;;;;;8.09;54.35;100489.31;4905270;29;45470;-70
2023/03/06 06:48:47;;;;;;;;;33.50;27.50;;;;;7.81;54.31;100443.09;4905589;29;45499;-70
2023/03/06 06:51:12;;;;;;;;;29.50;23.50;;;;;7.81;54.37;100440.44;4905541;29;45377;-71
2023/03/06 06:53:37;;;;;;;;;21.25;20.75;;;;;7.78;54.53;100444.94;4888376;29;45648;-70
2023/03/06 06:56:03;;;;;;;;;30.50;24.50;;;;;7.83;54.54;100460.72;4905080;29;46492;-71
2023/03/06 06:58:28;;;;;;;;;30.25;26.00;;;;;7.88;54.08;100471.25;4888093;29;45799;-70
2023/03/06 07:00:54;;;;;;;;;26.25;25.00;;;;;7.82;53.98;100469.63;4888350;29;45571;-70
2023/03/06 07:03:19;;;;;;;;;36.75;33.25;;;;;8.08;54.51;100518.59;4904113;29;45508;-70
2023/03/06 07:05:52;;;;;;;;;33.25;27.25;;;;;7.96;54.30;100501.16;4887919;29;46258;-70
2023/03/06 07:08:17;;;;;;;;;28.25;24.00;;;;;7.90;54.41;100486.25;4905052;29;45826;-71
2023/03/06 07:10:43;;;;;;;;;27.00;23.75;;;;;7.78;54.53;100467.94;4905105;29;45531;-70
2023/03/06 07:13:08;;;;;;;;;28.75;25.50;;;;;7.95;54.18;100504.72;4905251;29;45299;-70
2023/03/06 07:15:33;;;;;;;;;30.00;28.25;;;;;7.89;54.25;100500.44;4903761;29;47303;-70
2023/03/06 07:18:00;;;;;;;;;31.50;19.50;;;;;7.55;54.84;100440.19;4905180;29;45630;-70
2023/03/06 07:20:25;;;;;;;;;27.50;24.75;;;;;7.67;54.45;100467.34;4883581;29;45295;-70
2023/03/06 07:22:51;;;;;;;;;24.75;22.25;;;;;7.79;54.53;100481.19;4886098;29;45338;-70
2023/03/06 07:25:16;;;;;;;;;29.00;28.75;;;;;7.71;54.68;100477.00;4891972;29;46334;-70
2023/03/06 07:27:42;;;;;;;;;34.25;27.50;;;;;7.72;55.11;100468.13;4887716;29;45336;-70
2023/03/06 07:30:10;;;;;;;;;27.00;21.75;;;;;7.75;54.92;100484.84;4904976;29;45724;-70
2023/03/06 07:32:35;;;;;;;;;32.25;27.50;;;;;7.75;54.98;100492.84;4887832;29;45368;-70
2023/03/06 07:35:01;;;;;;;;;29.25;26.25;;;;;7.49;54.66;100450.09;4912918;28;48111;-71
2023/03/06 07:37:27;;;;;;;;;28.50;25.00;;;;;7.81;55.04;100496.25;4887769;29;46269;-70
2023/03/06 07:39:53;;;;;;;;;23.50;22.50;;;;;7.82;55.16;100508.59;4904849;29;45412;-70
2023/03/06 07:42:18;;;;;;;;;31.25;27.25;;;;;7.67;55.08;100481.50;4904470;28;45316;-70
2023/03/06 07:44:43;;;;;;;;;25.00;24.00;;;;;7.61;54.90;100466.56;4900919;28;47746;-70
2023/03/06 07:47:11;;;;;;;;;29.25;24.50;;;;;7.72;54.86;100478.75;4923824;28;45470;-70
2023/03/06 07:49:37;;;;;;;;;27.75;22.25;;;;;7.55;55.09;100455.22;4923649;28;45359;-70
2023/03/06 07:52:02;;;;;;;;;28.00;24.50;;;;;7.71;55.04;100474.34;4923609;28;45515;-70
2023/03/06 07:54:29;;;;;;;;;26.00;19.50;;;;;7.46;54.82;100437.75;4923127;28;45611;-70
2023/03/06 07:56:55;;;;;;;;;29.75;24.25;;;;;7.70;54.80;100472.56;4906146;28;45397;-70
2023/03/06 07:59:21;;;;;;;;;26.50;22.25;;;;;7.86;55.19;100504.97;4906469;28;45415;-70
2023/03/06 08:01:46;;;;;;;;;20.50;17.00;;;;;7.55;55.00;100457.88;4906387;28;45445;-70
2023/03/06 08:04:11;;;;;;;;;30.00;23.25;;;;;7.82;54.67;100498.88;4923272;28;46432;-70
2023/03/06 08:06:37;;;;;;;;;29.50;23.75;;;;;7.87;55.16;100506.69;4923411;28;45637;-70
2023/03/06 08:09:06;;;;;;;;;30.25;25.50;;;;;7.52;55.17;100450.03;4923197;28;45252;-69
2023/03/06 08:11:32;;;;;;;;;22.50;19.50;;;;;7.80;55.49;100495.34;4905911;28;45366;-70
2023/03/06 08:13:58;;;;;;;;;26.75;24.50;;;;;7.77;55.46;100491.00;4923183;28;45577;-70
2023/03/06 08:16:27;;;;;;;;;28.00;21.50;;;;;7.90;54.77;100502.22;4905774;28;45804;-70
2023/03/06 08:18:53;;;;;;;;;23.75;20.00;;;;;7.80;55.22;100484.72;4906289;28;45450;-70
2023/03/06 08:21:22;;;;;;;;;27.25;23.50;;;;;7.92;55.22;100500.38;4911865;28;45333;-70
2023/03/06 08:23:47;;;;;;;;;18.75;18.25;;;;;7.90;55.59;100514.59;4904202;28;46003;-70
2023/03/06 08:26:16;;;;;;;;;24.50;21.00;;;;;7.72;55.53;100481.41;4886547;29;45663;-70
2023/03/06 08:28:42;;;;;;;;;29.25;22.25;;;;;7.92;55.21;100524.28;4902733;29;45415;-70
2023/03/06 08:31:22;;;;;;;;;22.75;18.50;;;;;7.70;55.71;100480.53;4886900;29;45501;-69
2023/03/06 08:33:48;;;;;;;;;24.75;23.25;;;;;7.69;55.61;100477.03;4912652;28;46321;-70
2023/03/06 08:36:13;;;;;;;;;20.50;20.00;;;;;7.91;55.75;100513.69;4890278;29;45397;-70
2023/03/06 08:38:39;;;;;;;;;24.50;22.50;;;;;7.96;56.14;100528.59;4886891;29;45523;-71
2023/03/06 08:41:04;;;;;;;;;37.00;28.00;;;;;7.94;55.87;100518.94;4886352;28;45538;-68
2023/03/06 08:43:30;;;;;;;;;28.50;24.00;;;;;8.01;56.12;100525.84;4907445;28;45441;-68
2023/03/06 08:45:57;;;;;;;;;31.25;27.25;;;;;7.91;55.52;100503.94;4922610;28;45541;-68
2023/03/06 08:48:23;;;;;;;;;27.75;23.50;;;;;8.01;56.04;100522.31;4922964;28;45376;-68
2023/03/06 08:50:49;;;;;;;;;17.75;17.50;;;;;7.69;56.21;100474.38;4922650;28;45435;-69
2023/03/06 08:53:15;;;;;;;;;25.50;21.50;;;;;7.82;56.21;100501.53;4922751;28;45428;-69
2023/03/06 08:55:41;;;;;;;;;31.25;25.25;;;;;7.85;56.21;100498.78;4922601;28;45953;-69
2023/03/06 08:58:09;;;;;;;;;28.75;25.50;;;;;8.00;56.22;100518.75;4922487;28;45316;-67
2023/03/06 09:00:37;;;;;;;;;25.25;24.00;;;;;8.07;56.09;100528.34;4921296;28;45453;-68
2023/03/06 09:03:03;;;;;;;;;26.25;24.00;;;;;7.93;56.24;100509.22;4905424;28;47168;-67
2023/03/06 09:05:28;;;;;;;;;32.50;28.75;;;;;8.14;55.99;100535.25;4922443;28;45315;-68
2023/03/06 09:07:54;;;;;;;;;23.50;20.25;;;;;7.83;56.21;100489.97;4904431;28;45882;-67
2023/03/06 09:10:22;;;;;;;;;30.25;24.50;;;;;8.02;56.24;100510.75;4904995;28;45411;-67
2023/03/06 09:12:48;;;;;;;;;24.50;22.00;;;;;8.12;56.14;100521.13;4904445;28;47616;-68
2023/03/06 09:15:14;;;;;;;;;24.75;23.00;;;;;7.92;56.16;100487.09;4905065;28;45469;-68
2023/03/06 09:17:40;;;;;;;;;22.25;19.00;;;;;7.93;56.29;100491.47;4905220;28;45352;-67
2023/03/06 09:20:08;;;;;;;;;30.00;26.00;;;;;8.05;55.88;100500.94;4920406;28;45440;-67
2023/03/06 09:22:34;;;;;;;;;28.75;25.25;;;;;8.34;56.26;100555.16;4903262;29;47405;-68
2023/03/06 09:25:00;;;;;;;;;26.00;20.00;;;;;8.02;55.88;100494.81;4885773;29;45382;-68
2023/03/06 09:27:28;;;;;;;;;27.50;24.75;;;;;8.10;56.13;100504.34;4903259;29;45651;-69
2023/03/06 09:29:54;;;;;;;;;32.00;25.00;;;;;8.28;56.00;100542.88;4903093;29;45502;-67
2023/03/06 09:32:21;;;;;;;;;24.75;22.00;;;;;8.11;56.15;100506.06;4885810;29;47536;-72
2023/03/06 09:34:46;;;;;;;;;31.00;23.25;;;;;8.17;56.12;100515.69;4911038;28;45461;-70
2023/03/06 09:37:12;;;;;;;;;17.75;14.75;;;;;8.31;56.59;100532.16;4886102;29;45510;-70
2023/03/06 09:39:37;;;;;;;;;24.25;23.50;;;;;8.18;56.03;100512.09;4903017;28;45735;-70
2023/03/06 09:42:07;;;;;;;;;26.50;19.75;;;;;8.23;55.80;100512.00;4902446;29;45366;-70
2023/03/06 09:44:34;;;;;;;;;23.25;20.25;;;;;8.31;56.16;100518.00;4892618;29;45399;-70
2023/03/06 09:47:34;;;;;;;;;31.50;24.25;;;;;8.50;55.92;100556.53;4903071;28;45664;-70
2023/03/06 09:50:14;;;;;;;;;27.25;23.75;;;;;8.53;56.24;100550.22;4890850;28;45770;-69
2023/03/06 09:53:18;;;;;;;;;28.00;24.75;;;;;8.48;56.45;100542.38;4885512;29;47267;-70
2023/03/06 09:55:50;;;;;;;;;23.00;21.75;;;;;8.34;56.29;100510.78;4898249;29;45480;-70
2023/03/06 09:58:32;;;;;;;;;30.75;27.25;;;;;8.43;56.19;100527.47;4902676;29;46500;-72
2023/03/06 10:01:00;;;;;;;;;28.75;21.50;;;;;8.61;56.04;100545.56;4885205;29;45443;-73
2023/03/06 10:03:28;;;;;;;;;30.75;26.25;;;;;8.66;56.09;100551.66;4902638;29;45442;-73
2023/03/06 10:06:21;;;;;;;;;32.25;27.75;;;;;8.25;56.14;100480.91;4885274;29;45412;-73
2023/03/06 10:08:59;;;;;;;;;27.00;25.75;;;;;8.63;56.02;100529.56;4902370;29;45327;-73
2023/03/06 10:11:41;;;;;;;;;29.00;25.75;;;;;8.56;55.79;100517.38;4884901;29;45434;-73
2023/03/06 10:14:36;;;;;;;;;29.75;25.50;;;;;8.49;56.04;100498.91;4885345;29;47341;-72
2023/03/06 10:17:03;;;;;;;;;41.25;30.75;;;;;8.55;55.57;100502.31;4885267;29;45601;-73
2023/03/06 10:19:41;;;;;;;;;28.50;25.00;;;;;8.63;55.77;100505.63;4885525;29;45751;-73
2023/03/06 10:22:25;;;;;;;;;27.75;25.25;;;;;8.55;55.48;100491.66;4902725;28;45753;-73
2023/03/06 10:25:08;;;;;;;;;25.25;24.00;;;;;8.85;55.07;100529.84;4903930;28;46097;-72
2023/03/06 10:27:39;;;;;;;;;17.25;15.00;;;;;8.80;54.57;100516.66;4921374;28;45417;-72
2023/03/06 10:30:39;;;;;;;;;27.75;25.75;;;;;8.92;54.41;100526.09;4921414;28;45381;-74
2023/03/06 10:33:17;;;;;;;;;22.00;19.75;;;;;8.69;53.38;100487.69;4924562;28;45453;-74
2023/03/06 10:35:48;;;;;;;;;17.75;17.75;;;;;8.80;53.47;100499.81;4917956;28;46256;-74
2023/03/06 10:38:36;;;;;;;;;19.50;16.75;;;;;8.96;53.26;100522.41;4902237;28;45474;-74
2023/03/06 10:41:22;;;;;;;;;15.00;15.00;;;;;8.75;52.47;100488.44;4901224;28;45434;-74
2023/03/06 10:44:03;;;;;;;;;15.75;14.25;;;;;8.97;52.17;100513.53;4891273;28;45653;-74
2023/03/06 10:46:38;;;;;;;;;18.25;14.00;;;;;8.66;51.81;100462.97;4884701;29;48129;-73
2023/03/06 10:49:26;;;;;;;;;15.25;14.50;;;;;8.70;52.04;100469.94;4901875;29;45479;-73
2023/03/06 10:52:19;;;;;;;;;14.50;13.75;;;;;8.99;52.58;100509.03;4885165;29;45452;-74
2023/03/06 10:54:46;;;;;;;;;18.75;15.25;;;;;9.01;51.77;100516.97;4885140;29;45876;-73
2023/03/06 10:57:24;;;;;;;;;15.00;14.75;;;;;9.10;51.47;100514.00;4901672;28;46093;-76
2023/03/06 10:59:58;;;;;;;;;18.50;14.50;;;;;8.85;51.11;100465.94;4902172;29;45738;-72
2023/03/06 11:02:26;;;;;;;;;19.75;17.00;;;;;9.18;51.40;100513.78;4884951;29;45288;-72
2023/03/06 11:04:55;;;;;;;;;19.00;16.75;;;;;9.19;51.01;100510.22;4884851;29;45420;-73
2023/03/06 11:07:22;;;;;;;;;22.50;17.50;;;;;9.24;51.04;100510.94;4884170;29;47660;-74
2023/03/06 11:09:57;;;;;;;;;21.00;19.00;;;;;9.24;51.14;100503.81;4884794;29;45630;-70
2023/03/06 11:12:25;;;;;;;;;21.50;16.00;;;;;9.26;51.71;100504.66;4902052;29;45342;-70
2023/03/06 11:15:09;;;;;;;;;21.50;16.25;;;;;9.31;51.54;100500.97;4884682;29;45368;-70
2023/03/06 11:17:47;;;;;;;;;18.00;18.00;;;;;9.11;51.49;100473.16;4884592;29;48273;-70
2023/03/06 11:20:31;;;;;;;;;23.50;20.50;;;;;9.06;51.73;100461.78;4887342;28;45566;-70